createdAt,value
2024-01-04T00:02:48.298Z,94040.13
2024-01-04T00:06:37.899Z,94038.08
2024-01-04T00:10:27.695Z,94040.38
2024-01-04T00:14:17.218Z,94053.23
2024-01-04T00:18:07.019Z,94061.00
2024-01-04T00:21:57.558Z,94070.94
2024-01-04T00:25:47.294Z,94063.58
2024-01-04T00:29:37.073Z,94053.16
2024-01-04T00:33:26.824Z,94051.92
2024-01-04T00:37:16.440Z,94047.84
2024-01-04T00:40:54.400Z,94044.48
2024-01-04T00:44:43.731Z,94031.84
2024-01-04T00:48:33.549Z,94034.70
2024-01-04T00:52:23.353Z,94043.03
2024-01-04T00:56:12.932Z,94042.44
2024-01-04T01:00:02.685Z,94044.37
2024-01-04T01:03:52.476Z,94049.08
2024-01-04T01:07:33.123Z,94051.96
2024-01-04T01:11:22.768Z,94052.41
2024-01-04T01:15:12.594Z,94043.88
2024-01-04T01:19:02.461Z,94024.96
2024-01-04T01:22:52.369Z,94023.79
2024-01-04T01:26:41.916Z,94025.58
2024-01-04T01:30:31.799Z,94020.14
2024-01-04T01:34:24.243Z,94018.29
2024-01-04T01:37:59.482Z,94015.95
2024-01-04T01:41:41.982Z,94017.90
2024-01-04T01:45:31.575Z,94015.91
2024-01-04T01:49:21.944Z,94010.75
2024-01-04T01:53:00.541Z,94003.52
2024-01-04T01:56:50.048Z,94008.07
2024-01-04T02:00:39.617Z,94012.40
2024-01-04T02:04:29.246Z,94006.69
2024-01-04T02:08:19.030Z,94010.30
2024-01-04T02:12:09.164Z,94026.56
2024-01-04T02:15:58.950Z,94027.91
2024-01-04T02:19:48.752Z,94037.84
2024-01-04T02:23:38.551Z,94040.53
2024-01-04T02:27:28.265Z,94032.96
2024-01-04T02:31:17.942Z,94025.97
2024-01-04T02:35:07.723Z,94018.48
2024-01-04T02:38:56.343Z,94008.48
2024-01-04T02:42:46.124Z,94002.19
2024-01-04T02:46:35.757Z,94001.52
2024-01-04T02:50:25.492Z,94006.60
2024-01-04T02:54:08.347Z,94006.51
2024-01-04T02:57:49.012Z,93991.98
2024-01-04T03:01:37.409Z,93993.72
2024-01-04T03:05:27.114Z,93995.72
2024-01-04T03:09:17.108Z,93984.36
2024-01-04T03:13:06.923Z,93990.96
2024-01-04T03:16:56.503Z,93985.10
2024-01-04T03:20:46.326Z,93992.05
2024-01-04T03:24:35.912Z,93994.53
2024-01-04T03:28:25.719Z,93992.29
2024-01-04T03:32:15.291Z,93991.92
2024-01-04T03:36:05.118Z,93989.11
2024-01-04T03:39:54.621Z,93987.97
2024-01-04T03:43:44.365Z,93983.85
2024-01-04T03:47:34.107Z,93986.44
2024-01-04T03:51:23.767Z,93983.36
2024-01-04T03:55:13.434Z,93979.21
2024-01-04T03:58:53.736Z,93968.13
2024-01-04T04:02:25.718Z,93980.98
2024-01-04T04:06:15.586Z,93974.91
2024-01-04T04:10:05.365Z,93978.35
2024-01-04T04:13:54.983Z,93979.34
2024-01-04T04:17:35.909Z,93981.38
2024-01-04T04:21:25.694Z,93988.13
2024-01-04T04:25:15.401Z,93996.96
2024-01-04T04:29:05.153Z,93994.86
2024-01-04T04:32:54.941Z,93998.48
2024-01-04T04:36:43.136Z,93997.81
2024-01-04T04:40:32.488Z,94003.60
2024-01-04T04:44:22.021Z,94002.49
2024-01-04T04:48:11.919Z,94001.84
2024-01-04T04:52:01.631Z,93994.56
2024-01-04T04:55:51.311Z,94006.55
2024-01-04T04:59:41.113Z,94005.45
2024-01-04T05:03:31.022Z,94009.05
2024-01-04T05:07:20.735Z,94006.52
2024-01-04T05:11:10.506Z,94010.23
2024-01-04T05:15:00.325Z,94010.02
2024-01-04T05:18:50.395Z,94004.48
2024-01-04T05:22:39.982Z,94005.11
2024-01-04T05:26:29.558Z,94006.81
2024-01-04T05:30:19.443Z,94005.23
2024-01-04T05:34:09.317Z,94003.02
2024-01-04T05:37:58.920Z,94005.34
2024-01-04T05:41:41.237Z,94004.94
2024-01-04T05:45:30.802Z,94006.39
2024-01-04T05:49:20.774Z,94004.89
2024-01-04T05:53:10.524Z,94014.89
2024-01-04T05:56:58.952Z,94010.41
2024-01-04T06:00:49.334Z,94016.15
2024-01-04T06:04:31.849Z,94028.59
2024-01-04T06:08:21.640Z,94026.42
2024-01-04T06:12:14.094Z,94030.11
2024-01-04T06:15:43.152Z,94030.44
2024-01-04T06:19:33.079Z,94021.27
2024-01-04T06:23:22.790Z,94025.32
2024-01-04T06:27:12.731Z,94022.61
2024-01-04T06:31:02.494Z,94012.44
2024-01-04T06:34:52.212Z,94008.77
2024-01-04T06:38:42.097Z,94004.84
2024-01-04T06:42:31.834Z,94003.73
2024-01-04T06:46:14.508Z,93994.80
2024-01-04T06:50:11.822Z,93993.95
2024-01-04T06:54:07.642Z,93990.96
2024-01-04T06:57:57.326Z,93983.45
2024-01-04T07:01:47.022Z,93985.61
2024-01-04T07:05:36.645Z,93977.64
2024-01-04T07:09:26.481Z,93977.27
2024-01-04T07:13:16.107Z,93973.45
2024-01-04T07:17:02.623Z,93969.90
2024-01-04T07:20:45.058Z,93961.58
2024-01-04T07:24:27.400Z,93955.59
2024-01-04T07:28:16.979Z,93950.57
2024-01-04T07:31:56.584Z,93946.29
2024-01-04T07:35:46.357Z,93938.63
2024-01-04T07:39:35.926Z,93945.35
2024-01-04T07:43:18.915Z,93943.14
2024-01-04T07:47:08.598Z,93949.58
2024-01-04T07:50:43.383Z,93955.52
2024-01-04T07:54:26.685Z,93956.79
2024-01-04T07:58:16.651Z,93952.15
2024-01-04T08:01:46.320Z,93946.54
2024-01-04T08:05:27.313Z,93945.54
2024-01-04T08:09:09.745Z,93942.96
2024-01-04T08:12:59.368Z,93936.63
2024-01-04T08:16:41.601Z,93923.96
2024-01-04T08:20:31.159Z,93921.39
2024-01-04T08:24:06.145Z,93915.71
2024-01-04T08:27:55.343Z,93922.39
2024-01-04T08:31:44.171Z,93924.48
2024-01-04T08:35:26.371Z,93923.11
2024-01-04T08:39:16.315Z,93912.67
2024-01-04T08:42:58.586Z,93908.17
2024-01-04T08:46:43.690Z,93909.57
2024-01-04T08:50:07.621Z,93899.55
2024-01-04T08:53:55.831Z,93894.14
2024-01-04T08:57:27.730Z,93891.77
2024-01-04T09:00:40.486Z,93891.78
2024-01-04T09:03:57.607Z,93884.45
2024-01-04T09:07:47.198Z,93882.67
2024-01-04T09:11:29.400Z,93877.18
2024-01-04T09:15:19.176Z,93877.46
2024-01-04T09:18:12.282Z,93879.59
2024-01-04T09:21:55.791Z,93880.63
2024-01-04T09:25:45.311Z,93878.18
2024-01-04T09:29:34.904Z,93875.05
2024-01-04T09:33:24.676Z,93876.69
2024-01-04T09:37:14.384Z,93879.60
2024-01-04T09:41:03.604Z,93879.52
2024-01-04T09:44:49.611Z,93873.56
2024-01-04T09:48:39.383Z,93876.42
2024-01-04T09:52:24.609Z,93870.39
2024-01-04T09:56:14.085Z,93866.83
2024-01-04T10:00:03.684Z,93866.13
2024-01-04T10:03:46.158Z,93871.36
2024-01-04T10:07:35.974Z,93870.01
2024-01-04T10:11:18.146Z,93859.88
2024-01-04T10:15:07.300Z,93867.45
2024-01-04T10:18:49.643Z,93877.21
2024-01-04T10:22:44.961Z,93871.27
2024-01-04T10:26:34.488Z,93858.79
2024-01-04T10:30:24.165Z,93854.14
2024-01-04T10:34:07.243Z,93848.34
2024-01-04T10:37:56.842Z,93845.14
2024-01-04T10:41:36.539Z,93843.98
2024-01-04T10:45:22.105Z,93842.15
2024-01-04T10:49:03.787Z,93843.06
2024-01-04T10:52:53.406Z,93843.58
2024-01-04T10:56:35.825Z,93838.63
2024-01-04T11:00:18.398Z,93842.34
2024-01-04T11:04:04.142Z,93837.87
2024-01-04T11:07:52.371Z,93834.71
2024-01-04T11:11:41.888Z,93831.67
2024-01-04T11:15:31.613Z,93835.29
2024-01-04T11:19:24.140Z,93827.14
2024-01-04T11:22:58.967Z,93828.27
2024-01-04T11:27:09.988Z,93823.60
2024-01-04T11:30:59.700Z,93830.05
2024-01-04T11:34:43.215Z,93832.88
2024-01-04T11:38:23.794Z,93838.90
2024-01-04T11:42:12.956Z,93840.09
2024-01-04T11:46:02.699Z,93847.04
2024-01-04T11:49:59.585Z,93856.93
2024-01-04T11:53:58.630Z,93855.73
2024-01-04T11:57:27.857Z,93852.36
2024-01-04T12:01:17.573Z,93857.35
2024-01-04T12:05:00.682Z,93850.36
2024-01-04T12:08:28.203Z,93857.80
2024-01-04T12:12:17.728Z,93850.52
2024-01-04T12:16:00.132Z,93848.61
2024-01-04T12:19:35.289Z,93847.57
2024-01-04T12:23:25.166Z,93847.08
2024-01-04T12:27:14.826Z,93846.83
2024-01-04T12:30:58.027Z,93847.98
2024-01-04T12:34:50.497Z,93840.46
2024-01-04T12:38:45.830Z,93846.83
2024-01-04T12:42:35.551Z,93851.73
2024-01-04T12:46:17.781Z,93848.53
2024-01-04T12:49:59.928Z,93845.33
2024-01-04T12:53:48.619Z,93838.75
2024-01-04T12:57:08.689Z,93842.20
2024-01-04T13:00:58.601Z,93854.23
2024-01-04T13:04:41.806Z,93854.13
2024-01-04T13:08:31.385Z,93855.66
2024-01-04T13:13:06.943Z,93853.73
2024-01-04T13:16:31.389Z,93858.21
2024-01-04T13:20:20.997Z,93856.44
2024-01-04T13:24:04.005Z,93865.20
2024-01-04T13:27:38.842Z,93863.91
2024-01-04T13:31:28.382Z,93868.70
2024-01-04T13:35:17.962Z,93869.54
2024-01-04T13:39:07.764Z,93869.42
2024-01-04T13:42:45.434Z,93872.41
2024-01-04T13:45:14.813Z,93879.55
2024-01-04T13:48:16.960Z,93875.92
2024-01-04T13:51:36.551Z,93875.93
2024-01-04T13:55:02.200Z,93874.77
2024-01-04T13:57:57.653Z,93876.80
2024-01-04T14:00:51.044Z,93874.06
2024-01-04T14:03:32.674Z,93871.70
2024-01-04T14:06:21.924Z,93875.98
2024-01-04T14:10:01.582Z,93876.39
2024-01-04T14:13:51.257Z,93870.48
2024-01-04T14:17:38.044Z,93863.45
2024-01-04T14:21:11.522Z,93869.73
2024-01-04T14:24:42.432Z,93870.02
2024-01-04T14:28:32.011Z,93873.00
2024-01-04T14:32:13.251Z,93876.26
2024-01-04T14:35:17.996Z,93887.71
2024-01-04T14:38:56.523Z,93888.06
2024-01-04T14:42:14.456Z,93891.23
2024-01-04T14:46:04.242Z,93897.36
2024-01-04T14:48:48.504Z,93899.06
2024-01-04T14:52:04.046Z,93904.73
2024-01-04T14:55:29.098Z,93907.75
2024-01-04T14:58:47.654Z,93915.66
2024-01-04T15:01:53.731Z,93916.41
2024-01-04T15:05:34.804Z,93918.10
2024-01-04T15:09:06.005Z,93914.87
2024-01-04T15:12:29.746Z,93918.55
2024-01-04T15:16:08.398Z,93919.27
2024-01-04T15:19:25.013Z,93920.89
2024-01-04T15:22:26.389Z,93915.82
2024-01-04T15:25:31.612Z,93907.23
2024-01-04T15:28:38.696Z,93900.75
2024-01-04T15:31:53.989Z,93904.00
2024-01-04T15:35:43.690Z,93914.48
2024-01-04T15:39:32.142Z,93918.31
2024-01-04T15:43:21.568Z,93930.48
2024-01-04T15:47:11.215Z,93928.99
2024-01-04T15:51:00.781Z,93934.82
2024-01-04T15:54:39.201Z,93957.23
2024-01-04T15:58:18.759Z,93968.20
2024-01-04T16:02:00.387Z,93974.20
2024-01-04T16:05:50.408Z,93986.19
2024-01-04T16:09:08.314Z,93988.67
2024-01-04T16:12:05.710Z,93998.35
2024-01-04T16:15:22.524Z,93998.63
2024-01-04T16:18:17.191Z,94005.89
2024-01-04T16:21:29.492Z,94002.27
2024-01-04T16:24:19.154Z,94002.54
2024-01-04T16:28:08.824Z,93996.90
2024-01-04T16:31:41.580Z,93996.67
2024-01-04T16:35:31.236Z,93998.40
2024-01-04T16:39:13.319Z,94003.67
2024-01-04T16:43:02.447Z,94004.12
2024-01-04T16:46:42.012Z,94012.85
2024-01-04T16:50:02.236Z,94017.27
2024-01-04T16:53:10.464Z,94023.45
2024-01-04T16:55:39.367Z,94026.85
2024-01-04T16:58:51.198Z,94024.98
2024-01-04T17:02:21.769Z,94025.69
2024-01-04T17:06:02.003Z,94033.04
2024-01-04T17:09:41.326Z,94038.95
2024-01-04T17:13:31.258Z,94044.26
2024-01-04T17:17:21.040Z,94052.59
2024-01-04T17:21:11.214Z,94049.61
2024-01-04T17:24:03.259Z,94054.65
2024-01-04T17:26:32.322Z,94053.65
2024-01-04T17:29:28.075Z,94054.09
2024-01-04T17:32:46.478Z,94057.20
2024-01-04T17:36:24.850Z,94054.78
2024-01-04T17:39:32.285Z,94056.00
2024-01-04T17:43:15.491Z,94058.16
2024-01-04T17:46:25.282Z,94063.34
2024-01-04T17:49:55.838Z,94063.02
2024-01-04T17:53:45.703Z,94069.25
2024-01-04T17:57:35.544Z,94062.97
2024-01-04T18:01:23.944Z,94063.10
2024-01-04T18:05:13.584Z,94066.99
2024-01-04T18:08:18.920Z,94066.80
2024-01-04T18:12:02.287Z,94069.63
2024-01-04T18:14:51.371Z,94074.68
2024-01-04T18:18:23.412Z,94080.70
2024-01-04T18:21:33.610Z,94087.92
2024-01-04T18:25:13.253Z,94083.45
2024-01-04T18:28:45.309Z,94089.42
2024-01-04T18:32:17.228Z,94089.00
2024-01-04T18:35:49.679Z,94093.10
2024-01-04T18:39:19.962Z,94096.98
2024-01-04T18:43:09.522Z,94099.98
2024-01-04T18:46:59.040Z,94106.98
2024-01-04T18:50:48.965Z,94111.38
2024-01-04T18:54:38.628Z,94115.81
2024-01-04T18:58:29.375Z,94117.92
2024-01-04T19:02:02.115Z,94120.98
2024-01-04T19:05:50.688Z,94122.05
2024-01-04T19:09:40.456Z,94121.30
2024-01-04T19:13:32.855Z,94127.63
2024-01-04T19:16:10.162Z,94124.99
2024-01-04T19:19:10.374Z,94133.82
2024-01-04T19:22:35.261Z,94137.44
2024-01-04T19:26:24.954Z,94141.34
2024-01-04T19:29:54.276Z,94147.87
2024-01-04T19:33:23.914Z,94151.15
2024-01-04T19:36:54.543Z,94153.98
2024-01-04T19:40:33.258Z,94146.68
2024-01-04T19:43:37.707Z,94152.25
2024-01-04T19:46:57.228Z,94146.41
2024-01-04T19:50:42.363Z,94145.20
2024-01-04T19:54:14.941Z,94151.19
2024-01-04T19:57:52.619Z,94150.64
2024-01-04T20:00:22.057Z,94151.19
2024-01-04T20:03:43.288Z,94154.05
2024-01-04T20:07:32.837Z,94157.60
2024-01-04T20:11:22.386Z,94162.69
2024-01-04T20:15:12.653Z,94171.85
2024-01-04T20:19:02.399Z,94181.15
2024-01-04T20:22:52.025Z,94186.73
2024-01-04T20:26:41.881Z,94192.09
2024-01-04T20:30:24.430Z,94197.08
2024-01-04T20:34:06.881Z,94199.92
2024-01-04T20:37:48.902Z,94204.34
2024-01-04T20:41:41.301Z,94204.08
2024-01-04T20:45:31.071Z,94201.70
2024-01-04T20:49:20.948Z,94215.91
2024-01-04T20:52:52.843Z,94222.71
2024-01-04T20:56:42.486Z,94236.39
2024-01-04T21:00:32.388Z,94236.81
2024-01-04T21:04:11.040Z,94241.67
2024-01-04T21:08:00.821Z,94247.52
2024-01-04T21:11:50.410Z,94250.13
2024-01-04T21:15:39.990Z,94252.28
2024-01-04T21:19:19.934Z,94260.06
2024-01-04T21:22:42.596Z,94266.02
2024-01-04T21:26:12.203Z,94267.88
2024-01-04T21:29:38.138Z,94272.01
2024-01-04T21:33:28.046Z,94278.85
2024-01-04T21:37:17.834Z,94279.57
2024-01-04T21:41:06.152Z,94284.17
2024-01-04T21:44:49.021Z,94283.69
2024-01-04T21:48:18.665Z,94283.42
2024-01-04T21:52:08.734Z,94286.67
2024-01-04T21:55:38.354Z,94282.43
2024-01-04T21:59:28.140Z,94284.58
2024-01-04T22:03:00.531Z,94280.94
2024-01-04T22:06:33.385Z,94277.58
2024-01-04T22:10:28.130Z,94285.37
2024-01-04T22:14:02.059Z,94286.31
2024-01-04T22:16:54.247Z,94280.48
2024-01-04T22:19:54.475Z,94284.57
2024-01-04T22:23:07.705Z,94286.38
2024-01-04T22:26:35.584Z,94281.88
2024-01-04T22:29:57.552Z,94287.64
2024-01-04T22:33:47.329Z,94291.13
2024-01-04T22:37:37.474Z,94287.01
2024-01-04T22:41:27.130Z,94295.79
2024-01-04T22:44:38.291Z,94294.58
2024-01-04T22:48:27.988Z,94293.65
2024-01-04T22:52:17.756Z,94291.02
2024-01-04T22:56:07.537Z,94290.21
2024-01-04T22:59:58.491Z,94292.66
2024-01-04T23:03:49.526Z,94289.06
2024-01-04T23:07:39.534Z,94287.98
2024-01-04T23:11:29.254Z,94299.28
2024-01-04T23:15:18.704Z,94304.25
2024-01-04T23:19:08.293Z,94297.14
2024-01-04T23:22:58.107Z,94306.17
2024-01-04T23:26:40.602Z,94311.41
2024-01-04T23:30:30.398Z,94311.10
2024-01-04T23:34:20.126Z,94306.14
2024-01-04T23:38:09.929Z,94315.23
2024-01-04T23:41:59.585Z,94314.64
2024-01-04T23:45:49.188Z,94322.23
2024-01-04T23:49:39.016Z,94321.23
2024-01-04T23:53:28.753Z,94323.90
2024-01-04T23:57:18.670Z,94325.44
